Time;durP1;ratioP1;P1;durP2;ratioP2;P2;SDS_P1;SDS_P2;PMS_P1;PMS_P2;Temp;Humidity;BMP_temperature;BMP_pressure;BME280_temperature;BME280_humidity;BME280_pressure;Samples;Min_cycle;Max_cycle;Signal;HPM_P1;HPM_P2
2023/08/25 00:00:21;;;;;;;9.50;3.30;;;;;;;;;;5055667;28;20270;-76
2023/08/25 00:02:46;;;;;;;6.07;3.03;;;;;;;;;;5057745;28;20257;-76
2023/08/25 00:05:11;;;;;;;6.47;3.05;;;;;;;;;;5058143;28;20266;-76
2023/08/25 00:07:37;;;;;;;6.50;2.85;;;;;;;;;;5057638;28;20068;-76
2023/08/25 00:10:03;;;;;;;8.43;2.90;;;;;;;;;;5057377;28;20025;-76
2023/08/25 00:12:28;;;;;;;6.90;3.10;;;;;;;;;;5057515;28;20278;-76
2023/08/25 00:14:53;;;;;;;5.15;3.00;;;;;;;;;;5057930;28;20109;-76
2023/08/25 00:17:18;;;;;;;5.57;3.10;;;;;;;;;;5057399;28;20519;-76
2023/08/25 00:19:44;;;;;;;4.63;2.80;;;;;;;;;;5057171;28;20695;-75
2023/08/25 00:22:09;;;;;;;3.70;2.60;;;;;;;;;;5056051;28;20115;-75
2023/08/25 00:24:34;;;;;;;4.13;2.90;;;;;;;;;;5055999;28;20029;-76
2023/08/25 00:27:00;;;;;;;7.17;2.80;;;;;;;;;;5057266;28;20269;-75
2023/08/25 00:29:25;;;;;;;5.35;3.08;;;;;;;;;;5057910;28;20269;-76
2023/08/25 00:31:51;;;;;;;6.37;3.13;;;;;;;;;;5056102;28;20025;-76
2023/08/25 00:34:17;;;;;;;4.22;3.00;;;;;;;;;;5057236;28;20250;-76
2023/08/25 00:36:42;;;;;;;6.18;3.17;;;;;;;;;;5056890;28;20393;-76
2023/08/25 00:39:07;;;;;;;8.30;2.80;;;;;;;;;;5055828;28;20487;-76
2023/08/25 00:41:32;;;;;;;4.70;2.97;;;;;;;;;;5056241;28;20341;-76
2023/08/25 00:43:58;;;;;;;6.37;2.90;;;;;;;;;;5057242;28;20056;-75
2023/08/25 00:46:23;;;;;;;4.43;2.67;;;;;;;;;;5057295;28;20315;-76
2023/08/25 00:48:48;;;;;;;7.13;3.08;;;;;;;;;;5055816;28;20534;-74
2023/08/25 00:51:14;;;;;;;4.57;2.80;;;;;;;;;;5057373;28;20029;-74
2023/08/25 00:53:42;;;;;;;7.63;2.90;;;;;;;;;;5057014;28;20029;-74
2023/08/25 00:56:08;;;;;;;7.93;2.92;;;;;;;;;;5055284;28;20046;-75
2023/08/25 00:58:34;;;;;;;4.38;2.85;;;;;;;;;;5055706;28;20017;-75
2023/08/25 01:01:01;;;;;;;7.95;3.15;;;;;;;;;;5057136;28;20103;-74
2023/08/25 01:03:27;;;;;;;6.80;2.75;;;;;;;;;;5055649;28;20028;-75
2023/08/25 01:05:52;;;;;;;3.80;3.00;;;;;;;;;;5056574;28;20021;-75
2023/08/25 01:08:19;;;;;;;4.15;3.00;;;;;;;;;;5055251;28;20021;-75
2023/08/25 01:10:57;;;;;;;6.55;2.95;;;;;;;;;;5056178;28;20024;-76
2023/08/25 01:13:49;;;;;;;3.17;2.70;;;;;;;;;;5057018;28;20017;-74
2023/08/25 01:16:20;;;;;;;5.35;2.70;;;;;;;;;;5050558;28;20041;-75
2023/08/25 01:18:46;;;;;;;5.97;3.08;;;;;;;;;;5056162;28;20495;-75
2023/08/25 01:21:12;;;;;;;9.37;3.10;;;;;;;;;;5056807;28;20060;-75
2023/08/25 01:23:57;;;;;;;5.07;3.00;;;;;;;;;;5056249;28;20273;-75
2023/08/25 01:26:23;;;;;;;5.18;3.17;;;;;;;;;;5056297;28;20031;-75
2023/08/25 01:28:50;;;;;;;6.03;3.08;;;;;;;;;;5054884;28;20017;-75
2023/08/25 01:31:16;;;;;;;8.02;3.10;;;;;;;;;;5056404;28;20029;-74
2023/08/25 01:33:45;;;;;;;4.95;3.13;;;;;;;;;;5054633;28;20028;-75
2023/08/25 01:36:21;;;;;;;7.82;3.30;;;;;;;;;;5055673;28;20506;-74
2023/08/25 01:39:00;;;;;;;8.77;3.03;;;;;;;;;;5055560;28;20059;-76
2023/08/25 01:41:31;;;;;;;7.18;3.00;;;;;;;;;;5055846;28;20091;-74
2023/08/25 01:44:00;;;;;;;7.65;3.00;;;;;;;;;;5055691;28;20024;-74
2023/08/25 01:46:27;;;;;;;5.53;2.95;;;;;;;;;;5055796;28;20392;-74
2023/08/25 01:48:56;;;;;;;5.75;3.10;;;;;;;;;;5054515;28;20016;-76
2023/08/25 01:51:22;;;;;;;4.88;3.00;;;;;;;;;;5055839;28;20021;-74
2023/08/25 01:53:50;;;;;;;6.10;3.15;;;;;;;;;;5055716;28;20108;-74
2023/08/25 01:56:16;;;;;;;6.45;3.30;;;;;;;;;;5055722;28;20480;-74
2023/08/25 01:58:41;;;;;;;4.53;2.90;;;;;;;;;;5055169;28;20067;-76
2023/08/25 02:01:06;;;;;;;5.77;3.27;;;;;;;;;;5055202;28;20079;-76
2023/08/25 02:03:31;;;;;;;6.18;2.97;;;;;;;;;;5055108;28;20266;-72
2023/08/25 02:05:57;;;;;;;4.33;2.90;;;;;;;;;;5055165;28;20025;-74
2023/08/25 02:08:22;;;;;;;6.15;3.20;;;;;;;;;;5055195;28;20254;-74
2023/08/25 02:10:47;;;;;;;3.80;3.00;;;;;;;;;;5055203;28;20078;-75
2023/08/25 02:13:13;;;;;;;3.85;3.00;;;;;;;;;;5053825;28;20298;-74
2023/08/25 02:15:43;;;;;;;9.43;3.40;;;;;;;;;;5053561;28;20024;-74
2023/08/25 02:18:08;;;;;;;5.72;3.10;;;;;;;;;;5054484;28;20054;-75
2023/08/25 02:20:36;;;;;;;3.37;2.60;;;;;;;;;;5054164;28;20446;-74
2023/08/25 02:23:01;;;;;;;7.05;2.97;;;;;;;;;;5052811;28;20341;-74
2023/08/25 02:25:27;;;;;;;4.85;2.80;;;;;;;;;;5054854;28;20098;-74
2023/08/25 02:27:52;;;;;;;5.00;3.08;;;;;;;;;;5053608;28;20480;-74
2023/08/25 02:30:17;;;;;;;7.03;3.10;;;;;;;;;;5053884;28;20509;-74
2023/08/25 02:32:42;;;;;;;4.70;2.90;;;;;;;;;;5054775;28;20705;-74
2023/08/25 02:35:08;;;;;;;4.68;3.03;;;;;;;;;;5053439;28;20119;-74
2023/08/25 02:37:33;;;;;;;6.80;3.20;;;;;;;;;;5054529;28;20025;-74
2023/08/25 02:39:58;;;;;;;3.53;2.70;;;;;;;;;;5054852;28;20043;-74
2023/08/25 02:42:23;;;;;;;6.57;3.10;;;;;;;;;;5054446;28;20271;-74
2023/08/25 02:44:49;;;;;;;6.10;3.03;;;;;;;;;;5054897;28;20300;-75
2023/08/25 02:47:14;;;;;;;6.18;2.97;;;;;;;;;;5053287;28;20281;-74
2023/08/25 02:49:39;;;;;;;6.28;3.13;;;;;;;;;;5053168;28;20017;-76
2023/08/25 02:52:07;;;;;;;6.70;2.80;;;;;;;;;;5054661;28;20029;-75
2023/08/25 02:54:32;;;;;;;10.50;3.17;;;;;;;;;;5054713;28;20261;-74
2023/08/25 02:56:58;;;;;;;6.50;3.00;;;;;;;;;;5054567;28;20040;-74
2023/08/25 02:59:24;;;;;;;4.05;2.53;;;;;;;;;;5053087;28;20274;-74
2023/08/25 03:01:50;;;;;;;2.58;2.30;;;;;;;;;;5054446;28;20518;-75
2023/08/25 03:04:15;;;;;;;5.32;2.55;;;;;;;;;;5053264;28;20040;-75
2023/08/25 03:06:40;;;;;;;8.25;2.58;;;;;;;;;;5054723;28;20035;-75
2023/08/25 03:09:06;;;;;;;5.82;2.50;;;;;;;;;;5054456;28;20033;-75
2023/08/25 03:11:32;;;;;;;4.47;2.50;;;;;;;;;;5054413;28;20025;-75
2023/08/25 03:13:57;;;;;;;7.63;2.30;;;;;;;;;;5054707;28;20033;-74
2023/08/25 03:16:23;;;;;;;4.83;2.17;;;;;;;;;;5054262;28;20025;-75
2023/08/25 03:18:48;;;;;;;6.10;2.60;;;;;;;;;;5054254;28;20764;-75
2023/08/25 03:21:13;;;;;;;5.20;2.40;;;;;;;;;;5053941;28;20446;-74
2023/08/25 03:23:38;;;;;;;4.20;2.27;;;;;;;;;;5053061;28;20261;-75
2023/08/25 03:26:04;;;;;;;5.13;2.40;;;;;;;;;;5054201;28;20269;-75
2023/08/25 03:28:29;;;;;;;5.20;2.55;;;;;;;;;;5054554;28;20289;-75
2023/08/25 03:30:54;;;;;;;5.30;2.50;;;;;;;;;;5054096;28;20028;-75
2023/08/25 03:33:19;;;;;;;5.80;2.33;;;;;;;;;;5052648;28;20396;-75
2023/08/25 03:35:45;;;;;;;4.60;2.20;;;;;;;;;;5054178;28;20029;-75
2023/08/25 03:38:10;;;;;;;5.18;2.25;;;;;;;;;;5053884;28;20040;-76
2023/08/25 03:40:35;;;;;;;6.95;2.42;;;;;;;;;;5054362;28;20128;-75
2023/08/25 03:43:01;;;;;;;4.70;2.50;;;;;;;;;;5053934;28;20032;-74
2023/08/25 03:45:26;;;;;;;5.07;2.80;;;;;;;;;;5053957;28;20250;-74
2023/08/25 03:47:52;;;;;;;8.17;3.00;;;;;;;;;;5053561;28;20021;-73
2023/08/25 03:50:17;;;;;;;4.43;2.42;;;;;;;;;;5054104;28;20292;-74
2023/08/25 03:52:43;;;;;;;5.17;2.67;;;;;;;;;;5054318;28;20472;-74
2023/08/25 03:55:08;;;;;;;6.97;2.67;;;;;;;;;;5053557;28;20274;-76
2023/08/25 03:57:33;;;;;;;6.82;3.03;;;;;;;;;;5052967;28;20032;-75
2023/08/25 03:59:59;;;;;;;5.23;2.63;;;;;;;;;;5053763;28;20064;-76
2023/08/25 04:02:24;;;;;;;7.00;2.70;;;;;;;;;;5053687;28;20278;-76
2023/08/25 04:04:49;;;;;;;6.45;2.72;;;;;;;;;;5053793;28;20028;-76
2023/08/25 04:07:14;;;;;;;7.43;2.78;;;;;;;;;;5053736;28;20029;-76
2023/08/25 04:09:40;;;;;;;6.32;2.78;;;;;;;;;;5053777;28;20092;-77
2023/08/25 04:12:05;;;;;;;6.53;2.75;;;;;;;;;;5053996;28;20395;-76
2023/08/25 04:14:31;;;;;;;6.28;2.65;;;;;;;;;;5053570;28;20151;-75
2023/08/25 04:16:56;;;;;;;8.98;3.20;;;;;;;;;;5052190;28;20021;-75
2023/08/25 04:19:22;;;;;;;7.75;2.95;;;;;;;;;;5053687;28;20025;-75
2023/08/25 04:21:48;;;;;;;5.82;2.83;;;;;;;;;;5054000;28;20473;-74
2023/08/25 04:24:13;;;;;;;6.70;3.30;;;;;;;;;;5053657;28;20029;-75
2023/08/25 04:26:39;;;;;;;8.68;2.88;;;;;;;;;;5053798;28;20539;-74
2023/08/25 04:29:06;;;;;;;8.93;3.60;;;;;;;;;;5052225;28;20512;-74
2023/08/25 04:31:31;;;;;;;10.85;3.20;;;;;;;;;;5053577;28;20281;-76
2023/08/25 04:33:57;;;;;;;9.32;3.20;;;;;;;;;;5053843;28;20471;-76
2023/08/25 04:36:22;;;;;;;6.43;3.20;;;;;;;;;;5052478;28;20509;-75
2023/08/25 04:38:47;;;;;;;11.70;4.03;;;;;;;;;;5053036;28;20301;-75
2023/08/25 04:41:12;;;;;;;9.60;4.10;;;;;;;;;;5053469;28;20113;-75
2023/08/25 04:43:38;;;;;;;5.67;3.10;;;;;;;;;;5053477;28;20767;-75
2023/08/25 04:46:03;;;;;;;7.43;3.00;;;;;;;;;;5054641;28;20406;-74
2023/08/25 04:48:28;;;;;;;5.32;2.65;;;;;;;;;;5055305;28;20027;-74
2023/08/25 04:50:54;;;;;;;5.10;2.90;;;;;;;;;;5056997;28;20027;-74
2023/08/25 04:53:19;;;;;;;9.65;2.90;;;;;;;;;;5056817;28;20257;-75
2023/08/25 04:55:46;;;;;;;7.00;2.70;;;;;;;;;;5056702;28;20438;-74
2023/08/25 04:58:11;;;;;;;13.00;2.78;;;;;;;;;;5057079;28;20273;-74
2023/08/25 05:00:37;;;;;;;6.03;2.87;;;;;;;;;;5056942;28;20400;-75
2023/08/25 05:03:02;;;;;;;8.98;3.03;;;;;;;;;;5056470;28;20347;-75
2023/08/25 05:05:27;;;;;;;6.07;3.03;;;;;;;;;;5056833;28;20115;-76
2023/08/25 05:07:53;;;;;;;4.23;2.73;;;;;;;;;;5056629;28;20024;-76
2023/08/25 05:10:18;;;;;;;9.55;3.28;;;;;;;;;;5057150;28;20727;-76
2023/08/25 05:12:43;;;;;;;9.43;3.10;;;;;;;;;;5056428;28;20435;-75
2023/08/25 05:15:09;;;;;;;8.20;2.80;;;;;;;;;;5056282;28;20027;-76
2023/08/25 05:17:34;;;;;;;4.75;3.00;;;;;;;;;;5056483;28;20020;-76
2023/08/25 05:19:59;;;;;;;6.73;2.93;;;;;;;;;;5056527;28;20045;-74
2023/08/25 05:22:25;;;;;;;6.97;2.87;;;;;;;;;;5056471;28;20266;-75
2023/08/25 05:24:52;;;;;;;8.07;3.00;;;;;;;;;;5056684;28;20721;-76
2023/08/25 05:27:17;;;;;;;7.80;3.13;;;;;;;;;;5056249;28;20763;-76
2023/08/25 05:29:42;;;;;;;8.13;3.00;;;;;;;;;;5056510;28;20024;-76
2023/08/25 05:32:08;;;;;;;6.00;2.87;;;;;;;;;;5055835;28;20047;-76
2023/08/25 05:34:33;;;;;;;9.85;2.60;;;;;;;;;;5056769;28;20269;-76
2023/08/25 05:36:59;;;;;;;7.88;2.90;;;;;;;;;;5055181;28;20029;-76
2023/08/25 05:39:24;;;;;;;9.57;3.10;;;;;;;;;;5055974;28;20025;-76
2023/08/25 05:41:49;;;;;;;4.63;2.75;;;;;;;;;;5056065;28;20044;-76
2023/08/25 05:44:15;;;;;;;5.53;2.97;;;;;;;;;;5055098;28;20027;-76
2023/08/25 05:46:40;;;;;;;8.55;2.83;;;;;;;;;;5055893;28;20426;-76
2023/08/25 05:49:06;;;;;;;10.40;3.10;;;;;;;;;;5054355;28;20025;-76
2023/08/25 05:51:31;;;;;;;7.65;3.00;;;;;;;;;;5055423;28;20025;-76
2023/08/25 05:53:56;;;;;;;9.32;2.90;;;;;;;;;;5055717;28;20369;-76
2023/08/25 05:56:22;;;;;;;7.70;3.10;;;;;;;;;;5055821;28;20024;-75
2023/08/25 05:58:47;;;;;;;4.63;2.60;;;;;;;;;;5055764;28;20078;-74
2023/08/25 06:01:12;;;;;;;6.85;2.95;;;;;;;;;;5055573;28;20033;-75
2023/08/25 06:03:38;;;;;;;5.22;3.10;;;;;;;;;;5054352;28;20029;-76
2023/08/25 06:06:04;;;;;;;7.50;3.30;;;;;;;;;;5054266;28;20028;-75
2023/08/25 06:08:30;;;;;;;6.72;3.13;;;;;;;;;;5055390;28;20013;-75
2023/08/25 06:10:56;;;;;;;5.22;2.60;;;;;;;;;;5053926;28;20128;-75
2023/08/25 06:13:22;;;;;;;4.30;2.85;;;;;;;;;;5053874;28;20115;-76
2023/08/25 06:15:48;;;;;;;5.22;2.65;;;;;;;;;;5053757;28;20060;-75
2023/08/25 06:18:14;;;;;;;6.63;2.85;;;;;;;;;;5053792;28;20017;-75
2023/08/25 06:20:39;;;;;;;4.00;2.58;;;;;;;;;;5055141;28;20104;-75
2023/08/25 06:23:05;;;;;;;6.47;2.97;;;;;;;;;;5055204;28;20024;-76
2023/08/25 06:25:31;;;;;;;5.43;2.40;;;;;;;;;;5053811;28;20029;-75
2023/08/25 06:27:56;;;;;;;4.35;2.53;;;;;;;;;;5055195;28;20033;-75
2023/08/25 06:30:21;;;;;;;6.67;2.60;;;;;;;;;;5053789;28;20024;-75
2023/08/25 06:32:47;;;;;;;3.90;2.20;;;;;;;;;;5053704;28;20369;-75
2023/08/25 06:35:12;;;;;;;7.20;2.80;;;;;;;;;;5053659;28;20254;-75
2023/08/25 06:37:38;;;;;;;7.28;2.40;;;;;;;;;;5055065;28;20033;-75
2023/08/25 06:40:10;;;;;;;4.45;2.40;;;;;;;;;;5054924;28;20448;-75
2023/08/25 06:42:37;;;;;;;5.40;2.67;;;;;;;;;;5053953;28;20514;-75
2023/08/25 06:45:06;;;;;;;8.57;2.40;;;;;;;;;;5055163;28;20029;-75
2023/08/25 06:47:31;;;;;;;3.92;2.50;;;;;;;;;;5054756;28;20396;-75
2023/08/25 06:49:57;;;;;;;3.25;2.13;;;;;;;;;;5053433;28;20056;-75
2023/08/25 06:52:22;;;;;;;3.55;2.30;;;;;;;;;;5054590;28;20025;-75
2023/08/25 06:54:47;;;;;;;6.93;2.25;;;;;;;;;;5053130;28;20028;-75
2023/08/25 06:57:13;;;;;;;4.70;2.10;;;;;;;;;;5054794;28;20108;-75
2023/08/25 06:59:38;;;;;;;5.70;2.10;;;;;;;;;;5053542;28;20060;-75
2023/08/25 07:02:03;;;;;;;5.50;2.10;;;;;;;;;;5053309;28;20448;-75
2023/08/25 07:04:29;;;;;;;5.63;2.42;;;;;;;;;;5054507;28;20262;-75
2023/08/25 07:06:54;;;;;;;4.32;1.92;;;;;;;;;;5054217;28;20069;-75
2023/08/25 07:09:20;;;;;;;5.33;2.47;;;;;;;;;;5053909;28;20407;-75
2023/08/25 07:11:45;;;;;;;4.93;2.30;;;;;;;;;;5054101;28;20285;-75
2023/08/25 07:14:10;;;;;;;4.22;2.22;;;;;;;;;;5052996;28;20258;-75
2023/08/25 07:16:36;;;;;;;2.50;2.17;;;;;;;;;;5054186;28;20079;-76
2023/08/25 07:19:01;;;;;;;5.30;2.17;;;;;;;;;;5054054;28;20278;-76
2023/08/25 07:21:26;;;;;;;6.83;2.30;;;;;;;;;;5053108;28;20027;-76
2023/08/25 07:23:51;;;;;;;4.93;2.17;;;;;;;;;;5052650;28;20292;-75
2023/08/25 07:26:16;;;;;;;8.02;2.40;;;;;;;;;;5053957;28;20336;-76
2023/08/25 07:28:42;;;;;;;4.07;2.27;;;;;;;;;;5054539;28;20526;-76
2023/08/25 07:31:07;;;;;;;4.95;2.40;;;;;;;;;;5054669;28;20602;-76
2023/08/25 07:33:33;;;;;;;6.25;2.28;;;;;;;;;;5054504;28;20470;-75
2023/08/25 07:35:58;;;;;;;2.80;2.00;;;;;;;;;;5054714;28;20036;-76
2023/08/25 07:38:24;;;;;;;5.85;2.50;;;;;;;;;;5054138;28;20033;-76
2023/08/25 07:40:50;;;;;;;4.15;2.30;;;;;;;;;;5054121;28;20047;-76
2023/08/25 07:43:15;;;;;;;3.78;2.40;;;;;;;;;;5054160;28;20468;-76
2023/08/25 07:45:41;;;;;;;3.72;2.20;;;;;;;;;;5053927;28;20027;-75
2023/08/25 07:48:06;;;;;;;4.80;2.40;;;;;;;;;;5054216;28;20080;-76
2023/08/25 07:50:32;;;;;;;3.22;2.20;;;;;;;;;;5054156;28;20025;-76
2023/08/25 07:52:57;;;;;;;6.65;2.65;;;;;;;;;;5054308;28;20491;-76
2023/08/25 07:55:23;;;;;;;5.10;2.40;;;;;;;;;;5052923;28;20431;-77
2023/08/25 07:57:48;;;;;;;3.53;2.35;;;;;;;;;;5053969;28;20067;-76
2023/08/25 08:00:15;;;;;;;4.50;2.20;;;;;;;;;;5052804;28;20086;-76
2023/08/25 08:02:42;;;;;;;4.03;2.10;;;;;;;;;;5053820;28;20028;-76
2023/08/25 08:05:07;;;;;;;4.95;2.20;;;;;;;;;;5053834;28;20029;-74
2023/08/25 08:07:34;;;;;;;6.20;2.20;;;;;;;;;;5053849;28;20032;-74
2023/08/25 08:09:59;;;;;;;4.28;2.40;;;;;;;;;;5053536;28;20150;-76
2023/08/25 08:12:25;;;;;;;5.15;2.17;;;;;;;;;;5052630;28;20056;-75
2023/08/25 08:14:50;;;;;;;3.67;2.10;;;;;;;;;;5053534;28;20454;-75
2023/08/25 08:17:15;;;;;;;5.30;2.50;;;;;;;;;;5053455;28;20273;-75
2023/08/25 08:19:40;;;;;;;5.50;2.85;;;;;;;;;;5053894;28;20282;-74
2023/08/25 08:22:06;;;;;;;4.18;2.17;;;;;;;;;;5055728;28;20027;-75
2023/08/25 08:24:31;;;;;;;4.72;2.10;;;;;;;;;;5057556;28;20025;-74
2023/08/25 08:26:57;;;;;;;4.25;2.10;;;;;;;;;;5058126;28;20025;-74
2023/08/25 08:29:22;;;;;;;4.35;2.25;;;;;;;;;;5057745;28;20025;-75
2023/08/25 08:31:47;;;;;;;6.32;2.63;;;;;;;;;;5057450;28;20035;-75
2023/08/25 08:34:13;;;;;;;6.70;2.08;;;;;;;;;;5058234;28;20025;-74
2023/08/25 08:36:38;;;;;;;3.87;1.83;;;;;;;;;;5057329;28;20112;-75
2023/08/25 08:39:04;;;;;;;3.17;2.20;;;;;;;;;;5056989;28;20653;-75
2023/08/25 08:41:29;;;;;;;7.90;2.40;;;;;;;;;;5057677;28;20025;-75
2023/08/25 08:43:59;;;;;;;9.32;2.55;;;;;;;;;;5057040;28;20100;-75
2023/08/25 08:46:27;;;;;;;2.38;2.00;;;;;;;;;;5057228;28;20415;-75
2023/08/25 08:48:53;;;;;;;3.17;2.03;;;;;;;;;;5056926;28;20042;-75
2023/08/25 08:51:19;;;;;;;6.38;2.00;;;;;;;;;;5056119;28;20032;-75
2023/08/25 08:53:45;;;;;;;5.38;2.20;;;;;;;;;;5057539;28;20071;-75
2023/08/25 08:56:11;;;;;;;6.70;2.13;;;;;;;;;;5057171;28;20029;-75
2023/08/25 08:58:37;;;;;;;8.88;2.38;;;;;;;;;;5056821;28;20025;-75
2023/08/25 09:01:03;;;;;;;4.35;2.20;;;;;;;;;;5057047;28;20037;-76
2023/08/25 09:03:33;;;;;;;5.60;2.28;;;;;;;;;;5057495;28;20395;-74
2023/08/25 09:06:03;;;;;;;5.25;2.30;;;;;;;;;;5056760;28;20411;-74
2023/08/25 09:08:28;;;;;;;6.15;2.08;;;;;;;;;;5056889;28;20100;-75
2023/08/25 09:10:54;;;;;;;7.47;2.28;;;;;;;;;;5057779;28;20389;-76
2023/08/25 09:13:19;;;;;;;6.15;2.22;;;;;;;;;;5056938;28;20024;-75
2023/08/25 09:15:44;;;;;;;7.07;2.30;;;;;;;;;;5055255;28;20021;-75
2023/08/25 09:18:10;;;;;;;3.78;2.08;;;;;;;;;;5056878;28;20104;-75
2023/08/25 09:20:39;;;;;;;5.07;2.33;;;;;;;;;;5056521;28;20084;-75
2023/08/25 09:23:06;;;;;;;5.95;2.03;;;;;;;;;;5055144;28;20265;-76
2023/08/25 09:25:32;;;;;;;7.22;2.35;;;;;;;;;;5056351;28;20404;-74
2023/08/25 09:27:58;;;;;;;4.93;1.98;;;;;;;;;;5056364;28;20032;-75
2023/08/25 09:30:34;;;;;;;4.45;2.30;;;;;;;;;;5055094;28;20020;-74
2023/08/25 09:33:08;;;;;;;5.63;2.20;;;;;;;;;;5056014;28;20025;-76
2023/08/25 09:35:34;;;;;;;2.53;1.95;;;;;;;;;;5056939;28;20028;-75
2023/08/25 09:37:59;;;;;;;5.95;2.67;;;;;;;;;;5056234;28;20404;-75
2023/08/25 09:40:25;;;;;;;4.93;2.15;;;;;;;;;;5055760;28;20040;-75
2023/08/25 09:42:59;;;;;;;5.70;2.30;;;;;;;;;;5054784;28;20021;-75
2023/08/25 09:45:29;;;;;;;3.65;2.00;;;;;;;;;;5055017;28;20025;-76
2023/08/25 09:48:06;;;;;;;3.70;2.13;;;;;;;;;;5056098;28;20163;-76
2023/08/25 09:50:37;;;;;;;3.92;2.13;;;;;;;;;;5056391;28;20039;-76
2023/08/25 09:53:04;;;;;;;5.53;2.25;;;;;;;;;;5056128;28;20480;-76
2023/08/25 09:55:30;;;;;;;4.53;2.05;;;;;;;;;;5055755;28;20055;-76
2023/08/25 09:57:56;;;;;;;5.18;2.08;;;;;;;;;;5055987;28;20029;-75
2023/08/25 10:00:22;;;;;;;6.43;2.30;;;;;;;;;;5056125;28;20116;-75
2023/08/25 10:02:48;;;;;;;5.63;2.00;;;;;;;;;;5056034;28;20453;-75
2023/08/25 10:05:14;;;;;;;4.78;2.17;;;;;;;;;;5054877;28;20123;-75
2023/08/25 10:07:42;;;;;;;6.18;1.90;;;;;;;;;;5055541;28;20103;-75
2023/08/25 10:10:08;;;;;;;3.38;1.85;;;;;;;;;;5054774;28;20063;-75
2023/08/25 10:12:35;;;;;;;4.72;2.08;;;;;;;;;;5054506;28;20028;-76
2023/08/25 10:15:03;;;;;;;4.53;2.13;;;;;;;;;;5055565;28;20032;-74
2023/08/25 10:17:29;;;;;;;4.72;1.88;;;;;;;;;;5054192;28;20031;-74
2023/08/25 10:19:57;;;;;;;3.15;2.00;;;;;;;;;;5055313;28;20025;-75
2023/08/25 10:22:24;;;;;;;4.38;1.90;;;;;;;;;;5055410;28;20555;-76
2023/08/25 10:24:57;;;;;;;10.90;1.98;;;;;;;;;;5055248;28;20029;-75
2023/08/25 10:27:22;;;;;;;2.20;1.60;;;;;;;;;;5055089;28;20056;-75
2023/08/25 10:29:48;;;;;;;3.45;1.80;;;;;;;;;;5055156;28;20479;-75
2023/08/25 10:32:13;;;;;;;4.30;1.70;;;;;;;;;;5055164;28;20028;-74
2023/08/25 10:34:44;;;;;;;2.08;1.52;;;;;;;;;;5055066;28;20036;-75
2023/08/25 10:37:11;;;;;;;3.78;1.50;;;;;;;;;;5053522;28;20369;-75
2023/08/25 10:39:50;;;;;;;3.45;1.80;;;;;;;;;;5055121;28;20534;-75
2023/08/25 10:42:32;;;;;;;10.20;1.52;;;;;;;;;;5055343;28;20025;-75
2023/08/25 10:45:09;;;;;;;2.05;1.25;;;;;;;;;;5054183;28;20029;-75
2023/08/25 10:47:41;;;;;;;6.45;1.48;;;;;;;;;;5054738;28;20029;-75
2023/08/25 10:50:07;;;;;;;2.05;1.27;;;;;;;;;;5053793;28;20017;-75
2023/08/25 10:52:33;;;;;;;3.47;1.20;;;;;;;;;;5054689;28;20557;-76
2023/08/25 10:55:32;;;;;;;3.60;1.30;;;;;;;;;;5054852;28;20033;-75
2023/08/25 10:58:06;;;;;;;6.25;1.80;;;;;;;;;;5055224;28;20025;-76
2023/08/25 11:00:43;;;;;;;1.55;1.25;;;;;;;;;;5055471;28;20036;-75
2023/08/25 11:03:08;;;;;;;5.70;1.60;;;;;;;;;;5055637;28;20059;-75
2023/08/25 11:05:44;;;;;;;2.78;1.40;;;;;;;;;;5055043;28;20024;-76
2023/08/25 11:08:27;;;;;;;9.15;1.88;;;;;;;;;;5053746;28;20063;-75
2023/08/25 11:11:12;;;;;;;4.30;1.40;;;;;;;;;;5054552;28;20027;-75
2023/08/25 11:13:39;;;;;;;4.50;1.20;;;;;;;;;;5054947;28;20025;-75
2023/08/25 11:16:06;;;;;;;3.13;1.30;;;;;;;;;;5054919;28;20480;-75
2023/08/25 11:18:32;;;;;;;4.72;1.50;;;;;;;;;;5054569;28;20067;-75
2023/08/25 11:20:59;;;;;;;2.00;1.33;;;;;;;;;;5053449;28;20033;-75
2023/08/25 11:23:34;;;;;;;3.55;2.03;;;;;;;;;;5055002;28;20270;-75
2023/08/25 11:25:59;;;;;;;5.57;1.20;;;;;;;;;;5054630;28;20108;-76
2023/08/25 11:28:27;;;;;;;4.00;1.50;;;;;;;;;;5054468;28;20114;-75
2023/08/25 11:30:53;;;;;;;4.60;1.30;;;;;;;;;;5054603;28;20264;-75
2023/08/25 11:33:20;;;;;;;3.20;1.60;;;;;;;;;;5054385;28;20020;-75
2023/08/25 11:35:45;;;;;;;4.90;1.40;;;;;;;;;;5054697;28;20254;-75
2023/08/25 11:38:12;;;;;;;3.90;1.70;;;;;;;;;;5054216;28;20033;-75
2023/08/25 11:40:39;;;;;;;4.85;1.77;;;;;;;;;;5054350;28;20057;-74
2023/08/25 11:43:04;;;;;;;4.63;1.50;;;;;;;;;;5054556;28;20032;-75
2023/08/25 11:45:31;;;;;;;9.50;1.70;;;;;;;;;;5054563;28;20051;-75
2023/08/25 11:47:56;;;;;;;5.75;1.75;;;;;;;;;;5052657;28;20028;-77
2023/08/25 11:50:22;;;;;;;7.15;1.70;;;;;;;;;;5053339;28;20025;-76
2023/08/25 11:52:47;;;;;;;4.82;1.60;;;;;;;;;;5052974;28;20025;-74
2023/08/25 11:55:15;;;;;;;6.95;1.63;;;;;;;;;;5056476;28;20029;-74
2023/08/25 11:57:40;;;;;;;4.35;1.70;;;;;;;;;;5058361;28;20025;-76
2023/08/25 12:00:07;;;;;;;2.97;1.73;;;;;;;;;;5058187;28;20383;-76
2023/08/25 12:02:33;;;;;;;5.35;1.80;;;;;;;;;;5058217;28;20051;-76
2023/08/25 12:05:00;;;;;;;5.25;1.70;;;;;;;;;;5058621;28;20025;-76
2023/08/25 12:07:27;;;;;;;3.78;1.83;;;;;;;;;;5058310;28;20025;-75
2023/08/25 12:09:56;;;;;;;5.15;1.70;;;;;;;;;;5057202;28;20024;-76
2023/08/25 12:12:22;;;;;;;5.25;1.77;;;;;;;;;;5058351;28;20024;-76
2023/08/25 12:14:51;;;;;;;4.90;1.80;;;;;;;;;;5057938;28;20102;-76
2023/08/25 12:17:26;;;;;;;5.03;1.90;;;;;;;;;;5057925;28;20024;-76
2023/08/25 12:19:52;;;;;;;4.28;1.60;;;;;;;;;;5056689;28;20124;-76
2023/08/25 12:22:18;;;;;;;5.40;2.30;;;;;;;;;;5058378;28;20460;-76
2023/08/25 12:24:44;;;;;;;3.47;1.90;;;;;;;;;;5058400;28;20159;-76
2023/08/25 12:27:09;;;;;;;4.97;1.75;;;;;;;;;;5057734;28;20092;-76
2023/08/25 12:29:34;;;;;;;9.27;2.15;;;;;;;;;;5058565;28;20036;-74
2023/08/25 12:32:00;;;;;;;6.00;2.43;;;;;;;;;;5058035;28;20538;-77
2023/08/25 12:34:25;;;;;;;2.65;2.05;;;;;;;;;;5057548;28;20250;-75
2023/08/25 12:36:51;;;;;;;5.90;2.15;;;;;;;;;;5057955;28;20132;-75
2023/08/25 12:39:16;;;;;;;4.30;2.10;;;;;;;;;;5056568;28;20468;-74
2023/08/25 12:41:41;;;;;;;3.53;2.17;;;;;;;;;;5058069;28;20075;-75
2023/08/25 12:44:07;;;;;;;6.43;2.33;;;;;;;;;;5057822;28;20028;-72
2023/08/25 12:46:32;;;;;;;6.38;2.45;;;;;;;;;;5064877;28;20017;-75
2023/08/25 12:48:57;;;;;;;5.25;2.10;;;;;;;;;;5057384;28;20024;-74
2023/08/25 12:51:23;;;;;;;6.75;2.42;;;;;;;;;;5057258;28;20029;-76
2023/08/25 12:53:49;;;;;;;5.50;2.27;;;;;;;;;;5057090;28;20507;-75
2023/08/25 12:56:15;;;;;;;7.57;2.05;;;;;;;;;;5057355;28;20266;-75
2023/08/25 12:58:40;;;;;;;3.08;2.08;;;;;;;;;;5056384;28;20024;-75
2023/08/25 13:01:06;;;;;;;4.97;2.17;;;;;;;;;;5055977;28;20116;-75
2023/08/25 13:03:32;;;;;;;8.25;2.67;;;;;;;;;;5057667;28;20487;-75
2023/08/25 13:05:59;;;;;;;6.72;2.33;;;;;;;;;;5056522;28;20051;-75
2023/08/25 13:08:24;;;;;;;4.05;2.28;;;;;;;;;;5057077;28;20044;-75
2023/08/25 13:10:51;;;;;;;5.70;2.00;;;;;;;;;;5057123;28;20020;-75
2023/08/25 13:13:16;;;;;;;6.38;2.10;;;;;;;;;;5057475;28;20051;-75
2023/08/25 13:15:41;;;;;;;3.53;2.00;;;;;;;;;;5057397;28;20025;-75
2023/08/25 13:18:07;;;;;;;7.47;2.13;;;;;;;;;;5057659;28;20074;-75
2023/08/25 13:20:32;;;;;;;5.22;2.05;;;;;;;;;;5057467;28;20266;-75
2023/08/25 13:22:57;;;;;;;4.10;1.90;;;;;;;;;;5057051;28;20029;-74
2023/08/25 13:25:23;;;;;;;5.93;2.10;;;;;;;;;;5056973;28;20629;-74
2023/08/25 13:27:48;;;;;;;5.03;2.00;;;;;;;;;;5057376;28;20281;-74
2023/08/25 13:30:13;;;;;;;7.60;2.07;;;;;;;;;;5056987;28;20035;-74
2023/08/25 13:32:40;;;;;;;4.05;1.88;;;;;;;;;;5057004;28;20253;-75
2023/08/25 13:35:06;;;;;;;4.25;2.00;;;;;;;;;;5055435;28;20021;-74
2023/08/25 13:37:32;;;;;;;10.90;2.40;;;;;;;;;;5056888;28;20028;-74
2023/08/25 13:39:57;;;;;;;6.05;2.00;;;;;;;;;;5055235;28;20096;-76
2023/08/25 13:42:24;;;;;;;7.15;1.92;;;;;;;;;;5056602;28;20078;-75
2023/08/25 13:44:50;;;;;;;5.32;1.88;;;;;;;;;;5056288;28;20060;-74
2023/08/25 13:47:15;;;;;;;5.33;2.00;;;;;;;;;;5056325;28;20029;-76
2023/08/25 13:49:40;;;;;;;4.55;1.90;;;;;;;;;;5056460;28;20265;-75
2023/08/25 13:52:05;;;;;;;5.87;2.00;;;;;;;;;;5056188;28;20471;-76
2023/08/25 13:54:31;;;;;;;5.72;2.40;;;;;;;;;;5056304;28;20369;-76
2023/08/25 13:56:56;;;;;;;8.23;2.43;;;;;;;;;;5056079;28;20523;-75
2023/08/25 13:59:21;;;;;;;4.43;1.85;;;;;;;;;;5056675;28;20361;-76
2023/08/25 14:01:46;;;;;;;5.37;2.00;;;;;;;;;;5056105;28;20028;-76
2023/08/25 14:04:12;;;;;;;5.20;2.20;;;;;;;;;;5054594;28;20694;-76
2023/08/25 14:06:37;;;;;;;7.03;1.92;;;;;;;;;;5055759;28;20257;-76
2023/08/25 14:09:04;;;;;;;4.35;2.10;;;;;;;;;;5054249;28;20365;-76
2023/08/25 14:11:30;;;;;;;5.15;2.03;;;;;;;;;;5055888;28;20032;-76
2023/08/25 14:13:55;;;;;;;6.05;2.00;;;;;;;;;;5055932;28;20028;-76
2023/08/25 14:16:20;;;;;;;3.88;1.95;;;;;;;;;;5055363;28;20028;-76
2023/08/25 14:18:46;;;;;;;5.97;1.97;;;;;;;;;;5054606;28;20025;-76
2023/08/25 14:21:11;;;;;;;3.70;1.80;;;;;;;;;;5054321;28;20021;-76
2023/08/25 14:23:38;;;;;;;8.90;1.90;;;;;;;;;;5054005;28;20346;-76
2023/08/25 14:26:03;;;;;;;4.88;2.25;;;;;;;;;;5055678;28;20044;-77
2023/08/25 14:28:29;;;;;;;7.32;2.08;;;;;;;;;;5055416;28;20025;-76
2023/08/25 14:30:54;;;;;;;4.10;2.05;;;;;;;;;;5055174;28;20021;-76
2023/08/25 14:33:19;;;;;;;3.87;1.90;;;;;;;;;;5055532;28;20545;-76
2023/08/25 14:35:44;;;;;;;5.77;2.20;;;;;;;;;;5055002;28;20262;-73
2023/08/25 14:38:10;;;;;;;5.67;2.40;;;;;;;;;;5054912;28;20329;-74